Latest Weather Observations for Nullarbor

IDS60801

Issued at 4:31 am CDT Thursday 11 February 2016 (issued every 30 minutes, with the page automatically refreshed every 10 minutes)

About weather observations | Map of weather stations | Latest weather observations for SA | Other Formats
Station Details ID: 018106 Name: NULLARBOR Lat: -31.45 Lon: 130.90 Height: 64.0 m
Data from the previous 72 hours. | See also: Recent months at Nullarbor
Date/Time
CDT
Temp
°C
App
Temp
°C
Dew
Point
Rel
Hum
%
Delta-T
°C
Wind Press
QNH
hPa
Press
MSL
hPa
Rain
since 9 am
mm
Dir
 
Spd
km/h
Gust
km/h
Spd
kts
Gust
kts
11/04:30am 17.9 15.6 14.6 81 1.9 SSE 20 28 11 15 1017.0 1016.8 0.0
11/04:00am 18.0 14.9 14.5 80 2.0 SE 24 28 13 15 1017.0 1016.8 0.0
11/03:30am 17.9 15.6 14.2 79 2.1 SE 19 26 10 14 1017.1 1016.9 0.0
11/03:00am 18.6 16.3 14.7 78 2.3 SE 20 30 11 16 1017.2 1017.0 0.0
11/02:30am 18.7 15.6 14.6 77 2.4 SSE 24 32 13 17 1017.5 1017.3 0.0
11/02:00am 19.1 17.0 15.2 78 2.3 SSE 20 28 11 15 1017.5 1017.3 0.0
11/01:30am 19.2 16.3 15.1 77 2.4 SE 24 32 13 17 1018.0 1017.8 0.0
11/01:00am 19.2 17.1 15.1 77 2.4 SSE 20 30 11 16 1018.4 1018.2 0.0
11/12:30am 19.1 16.5 15.0 77 2.4 SSE 22 30 12 16 1018.4 1018.2 0.0
11/12:00am 19.3 15.8 14.6 74 2.7 SSE 26 35 14 19 1018.5 1018.3 0.0
 
Date/Time
CDT
Temp
°C
App
Temp
°C
Dew
Point
Rel
Hum
%
Delta-T
°C
Wind Press
QNH
hPa
Press
MSL
hPa
Rain
since 9 am
mm
Dir
 
Spd
km/h
Gust
km/h
Spd
kts
Gust
kts
10/11:30pm 19.3 16.2 14.6 74 2.7 SSE 24 37 13 20 1018.4 1018.2 0.0
10/11:00pm 19.5 15.7 14.7 74 2.8 SSE 28 37 15 20 1018.2 1018.0 0.0
10/10:30pm 19.4 16.3 14.4 73 2.9 SSE 24 33 13 18 1018.0 1017.8 0.0
10/10:00pm 19.5 16.4 14.5 73 2.9 SSE 24 35 13 19 1017.8 1017.6 0.0
10/09:30pm 19.7 16.2 14.5 72 3.0 S 26 37 14 20 1017.5 1017.3 0.0
10/09:00pm 19.7 16.3 14.7 73 2.9 SSE 26 35 14 19 1017.6 1017.4 0.0
10/08:30pm 19.7 15.6 14.9 74 2.8 S 30 37 16 20 1017.1 1016.9 0.0
10/08:00pm 19.9 15.5 15.1 74 2.8 S 32 39 17 21 1016.7 1016.5 0.0
10/07:30pm 20.4 16.3 15.0 71 3.2 S 30 37 16 20 1016.5 1016.3 0.0
10/07:00pm 20.9 16.4 14.8 68 3.6 S 32 39 17 21 1016.4 1016.2 0.0
10/06:30pm 21.4 17.6 14.6 65 4.0 S 28 37 15 20 1016.1 1015.9 0.0
10/06:00pm 21.6 17.7 14.5 64 4.2 S 28 35 15 19 1015.9 1015.7 0.0
10/05:30pm 22.1 18.1 14.2 61 4.6 SSE 28 37 15 20 1016.0 1015.8 0.0
10/05:00pm 22.6 18.3 14.4 60 4.8 SSE 30 37 16 20 1016.1 1015.9 0.0
10/04:30pm 22.6 19.0 14.2 59 4.9 SSE 26 33 14 18 1016.3 1016.1 0.0
10/04:00pm 22.9 19.6 13.9 57 5.3 SSE 24 33 13 18 1016.2 1016.0 0.0
10/03:30pm 22.5 18.8 13.8 58 5.1 S 26 37 14 20 1016.4 1016.2 0.0
10/03:00pm 22.3 18.8 13.4 57 5.1 SSE 24 33 13 18 1016.7 1016.5 0.0
10/02:30pm 22.7 19.7 13.7 56 5.2 S 22 30 12 16 1016.8 1016.6 0.0
10/02:00pm 23.1 20.7 13.8 55 5.4 S 19 30 10 16 1016.9 1016.7 0.0
10/01:30pm 22.7 20.2 14.0 58 5.1 SSE 20 32 11 17 1017.2 1017.0 0.0
10/01:00pm 21.9 19.4 13.5 59 4.9 SE 19 28 10 15 1017.2 1017.0 0.0
10/12:30pm 21.6 19.1 13.5 60 4.7 SSE 19 28 10 15 1017.3 1017.1 0.0
10/12:00pm 20.7 18.0 13.4 63 4.2 SSE 20 28 11 15 1017.9 1017.7 0.0
10/11:30am 20.2 18.0 13.4 65 3.9 SSE 17 26 9 14 1018.0 1017.8 0.0
10/11:00am 19.8 17.7 13.7 68 3.5 S 17 26 9 14 1017.8 1017.6 0.0
10/10:30am 18.9 16.8 13.7 72 3.0 SSE 17 24 9 13 1017.9 1017.7 0.0
10/10:00am 18.5 16.5 13.8 74 2.7 S 17 28 9 15 1018.0 1017.8 0.0
10/09:53am 18.3 16.3 13.8 75 2.6 SE 17 24 9 13 1017.9 1017.7 0.0
10/09:30am 18.3 17.6 14.2 77 2.4 ESE 11 17 6 9 1017.5 1017.3 0.0
10/09:00am 17.8 17.0 14.1 79 2.1 SE 11 15 6 8 1017.3 1017.1 0.0
10/08:30am 17.7 16.7 14.6 82 1.8 SE 13 19 7 10 1017.2 1017.0 0.0
10/08:00am 17.4 15.5 14.3 82 1.8 SSE 17 22 9 12 1017.2 1017.0 0.0
10/07:30am 17.2 15.8 14.5 84 1.6 SSE 15 20 8 11 1016.7 1016.5 0.0
10/07:00am 17.1 15.3 14.4 84 1.6 SSE 17 24 9 13 1016.3 1016.1 0.0
10/06:30am 17.2 15.5 14.7 85 1.4 SE 17 24 9 13 1016.0 1015.8 0.0
10/06:00am 17.2 15.1 14.7 85 1.4 SSE 19 24 10 13 1016.0 1015.8 0.0
10/05:30am 17.1 15.4 14.7 86 1.4 SE 17 22 9 12 1015.7 1015.5 0.0
10/05:00am 17.0 16.5 15.0 88 1.2 SSE 11 17 6 9 1015.7 1015.5 0.0
10/04:30am 17.0 15.7 14.8 87 1.3 SE 15 20 8 11 1015.8 1015.6 0.0
10/04:00am 17.2 15.0 14.5 84 1.6 SE 19 24 10 13 1015.9 1015.7 0.0
10/03:30am 17.5 15.4 14.8 84 1.6 SE 19 24 10 13 1016.3 1016.1 0.0
10/03:00am 17.5 15.3 15.0 85 1.5 SSE 20 26 11 14 1016.7 1016.5 0.0
10/02:30am 17.1 16.1 15.6 91 0.9 SSE 15 20 8 11 1016.8 1016.6 0.0
10/02:11am 16.2 15.2 14.7 91 0.9 SE 13 17 7 9 1017.1 1016.9 0.0
10/02:00am 16.4 15.8 14.6 89 1.0 SE 11 13 6 7 1016.9 1016.7 0.0
10/01:36am 16.8 15.4 14.6 87 1.3 SE 15 19 8 10 1017.3 1017.1 0.0
10/01:30am 17.0 15.3 14.6 86 1.4 SE 17 20 9 11 1017.5 1017.3 0.0
10/01:00am 17.8 15.7 15.1 84 1.6 SE 20 26 11 14 1017.9 1017.7 0.0
10/12:30am 18.0 16.5 15.3 84 1.6 SSE 17 26 9 14 1018.3 1018.1 0.0
10/12:00am 18.2 15.8 15.5 84 1.6 SE 22 30 12 16 1018.4 1018.2 0.0
 
Date/Time
CDT
Temp
°C
App
Temp
°C
Dew
Point
Rel
Hum
%
Delta-T
°C
Wind Press
QNH
hPa
Press
MSL
hPa
Rain
since 9 am
mm
Dir
 
Spd
km/h
Gust
km/h
Spd
kts
Gust
kts
09/11:30pm 18.4 16.1 15.6 84 1.7 SE 22 28 12 15 1018.6 1018.4 0.0
09/11:00pm 18.4 15.8 15.8 85 1.5 SSE 24 32 13 17 1018.5 1018.3 0.0
09/10:30pm 18.4 15.4 15.8 85 1.5 SSE 26 32 14 17 1018.3 1018.1 0.0
09/10:00pm 18.3 16.5 15.9 86 1.4 SE 20 26 11 14 1018.2 1018.0 0.0
09/09:41pm 18.3 16.5 15.9 86 1.4 SE 20 28 11 15 1017.9 1017.7 0.0
09/09:30pm 18.3 15.3 15.9 86 1.4 SE 26 32 14 17 1017.7 1017.5 0.0
09/09:00pm 18.5 15.4 15.7 84 1.7 SSE 26 32 14 17 1017.6 1017.4 0.0
09/08:30pm 19.0 15.6 15.9 82 1.8 SSE 28 33 15 18 1017.5 1017.3 0.0
09/08:00pm 19.8 16.4 15.7 77 2.4 SSE 28 35 15 19 1017.3 1017.1 0.0
09/07:30pm 20.7 17.0 15.9 74 2.9 SSE 30 35 16 19 1017.1 1016.9 0.0
09/07:00pm 21.6 17.9 15.9 70 3.4 SSE 30 37 16 20 1017.1 1016.9 0.0
09/06:30pm 21.8 17.6 15.6 68 3.7 SSE 32 39 17 21 1016.9 1016.7 0.0
09/06:00pm 22.2 18.3 15.5 66 4.0 SSE 30 39 16 21 1017.2 1017.0 0.0
09/05:30pm 22.9 19.3 15.2 62 4.6 SSE 28 35 15 19 1017.4 1017.2 0.0
09/05:00pm 23.0 19.7 15.1 61 4.7 SSE 26 35 14 19 1017.6 1017.4 0.0
09/04:30pm 23.9 20.6 15.1 58 5.3 SSE 26 33 14 18 1017.8 1017.6 0.0
09/04:00pm 24.2 21.6 14.9 56 5.6 SSE 22 30 12 16 1018.0 1017.8 0.0
09/03:30pm 24.1 21.7 15.3 58 5.3 SSE 22 30 12 16 1018.3 1018.1 0.0
09/03:00pm 24.2 21.8 15.4 58 5.3 SSE 22 33 12 18 1018.5 1018.3 0.0
09/02:30pm 24.2 22.2 15.4 58 5.3 SE 20 30 11 16 1018.7 1018.5 0.0
09/02:00pm 23.5 21.3 15.0 59 5.1 SSE 20 28 11 15 1018.9 1018.7 0.0
09/01:30pm 23.1 21.0 15.2 61 4.7 SSE 20 30 11 16 1019.3 1019.1 0.0
09/01:00pm 22.7 20.3 15.3 63 4.4 SE 22 32 12 17 1019.5 1019.3 0.0
09/12:30pm 22.2 20.1 15.3 65 4.1 SE 20 32 11 17 1019.9 1019.7 0.0
09/12:00pm 22.6 20.2 15.4 64 4.3 SSE 22 33 12 18 1020.2 1020.0 0.0
09/11:30am 22.3 20.5 15.9 67 3.9 SE 20 30 11 16 1020.2 1020.0 0.0
09/11:00am 21.8 20.0 15.9 69 3.6 SE 20 28 11 15 1020.3 1020.1 0.0
09/10:30am 20.9 18.9 15.4 71 3.3 SE 20 26 11 14 1020.4 1020.2 0.0
09/10:00am 20.7 18.9 16.1 75 2.8 SE 20 28 11 15 1020.5 1020.3 0.0
09/09:30am 20.1 18.3 15.9 77 2.5 SE 20 24 11 13 1020.2 1020.0 0.0
09/09:00am 19.0 17.2 16.0 83 1.8 SE 20 28 11 15 1020.3 1020.1 0.0
09/08:56am 19.0 17.2 16.0 83 1.8 SE 20 28 11 15 1020.3 1020.1 0.0
09/08:30am 18.8 17.6 16.2 85 1.6 SE 17 20 9 11 1020.3 1020.1 0.0
09/08:04am 17.8 17.1 16.3 91 0.9 SE 15 19 8 10 1019.8 1019.6 0.0
09/08:00am 17.7 16.9 16.2 91 0.9 SE 15 19 8 10 1019.7 1019.5 0.0
09/07:30am 17.4 16.1 15.9 91 0.9 ESE 17 22 9 12 1019.4 1019.2 0.0
09/07:00am 17.9 16.1 15.9 88 1.2 SE 20 28 11 15 1019.4 1019.2 0.0
09/06:30am 17.8 15.9 15.8 88 1.2 SE 20 32 11 17 1019.4 1019.2 0.0
09/06:01am 17.7 15.0 15.7 88 1.2 SE 24 32 13 17 1019.3 1019.1 0.0
09/06:00am 17.7 15.4 15.7 88 1.2 SE 22 32 12 17 1019.2 1019.0 0.0
09/05:30am 17.5 15.6 15.8 90 1.0 SE 20 24 11 13 1019.1 1018.9 0.0
09/05:00am 17.3 14.6 15.5 89 1.1 SE 24 32 13 17 1019.1 1018.9 0.0
09/04:41am 16.7 15.2 15.4 92 0.8 SSE 17 19 9 10 1019.2 1019.0 0.0
09/04:30am 16.4 14.8 14.9 91 0.9 SSE 17 20 9 11 1019.2 1019.0 0.0
09/04:13am 16.5 14.8 14.7 89 1.0 SE 17 20 9 11 1019.3 1019.1 0.0
09/04:01am 16.8 14.8 15.0 89 1.0 SE 19 24 10 13 1019.3 1019.1 0.0
09/04:00am 16.8 14.8 15.0 89 1.0 SE 19 24 10 13 1019.3 1019.1 0.0
09/03:30am 16.4 14.1 14.2 87 1.3 SE 19 22 10 12 1019.5 1019.3 0.0
09/03:00am 16.7 14.7 14.0 84 1.5 SE 17 20 9 11 1020.0 1019.8 0.0
09/02:49am 17.0 14.5 14.1 83 1.7 SE 20 26 11 14 1020.2 1020.0 0.0
09/02:30am 17.1 14.6 14.0 82 1.8 SE 20 26 11 14 1020.3 1020.1 0.0
09/02:06am 17.4 15.0 14.3 82 1.8 SE 20 28 11 15 1020.6 1020.4 0.0
09/02:00am 17.4 15.0 14.3 82 1.8 SE 20 28 11 15 1020.5 1020.3 0.0
09/01:30am 17.7 14.9 14.2 80 2.0 SE 22 30 12 16 1021.0 1020.8 0.0
09/01:00am 17.9 14.6 14.0 78 2.2 SE 24 32 13 17 1021.4 1021.2 0.0
09/12:30am 18.1 15.6 14.2 78 2.2 SE 20 28 11 15 1021.7 1021.5 0.0
09/12:00am 18.1 14.9 14.2 78 2.2 SE 24 32 13 17 1021.8 1021.6 0.0
 
Date/Time
CDT
Temp
°C
App
Temp
°C
Dew
Point
Rel
Hum
%
Delta-T
°C
Wind Press
QNH
hPa
Press
MSL
hPa
Rain
since 9 am
mm
Dir
 
Spd
km/h
Gust
km/h
Spd
kts
Gust
kts
08/11:30pm 18.1 15.0 14.6 80 2.0 SE 24 32 13 17 1021.9 1021.7 0.0
08/11:00pm 18.0 15.3 14.7 81 1.9 SE 22 28 12 15 1021.8 1021.6 0.0
08/10:59pm 18.0 15.3 14.7 81 1.9 SE 22 32 12 17 1021.8 1021.6 0.0
08/10:30pm 17.8 13.9 14.5 81 1.9 SE 28 33 15 18 1021.6 1021.4 0.0
08/10:13pm 17.9 14.1 14.6 81 1.9 SE 28 37 15 20 1021.4 1021.2 0.0
08/10:00pm 17.7 14.2 14.6 82 1.8 SE 26 35 14 19 1021.4 1021.2 0.0
08/09:30pm 17.7 14.6 14.4 81 1.9 SE 24 32 13 17 1021.3 1021.1 0.0
08/09:00pm 17.9 13.9 14.2 79 2.1 SE 28 37 15 20 1021.1 1020.9 0.0
08/08:30pm 18.4 13.6 14.1 76 2.5 SE 32 43 17 23 1020.8 1020.6 0.0
08/08:00pm 19.4 14.5 14.4 73 2.9 SE 33 43 18 23 1020.8 1020.6 0.0
08/07:30pm 19.8 14.1 14.2 70 3.2 SE 37 44 20 24 1020.6 1020.4 0.0
08/07:00pm 20.4 14.7 14.1 67 3.7 SE 37 46 20 25 1020.5 1020.3 0.0
08/06:30pm 21.0 15.2 13.9 64 4.1 SSE 37 46 20 25 1020.5 1020.3 0.0
08/06:00pm 21.4 15.7 14.1 63 4.2 SE 37 46 20 25 1020.5 1020.3 0.0
08/05:30pm 22.0 16.8 14.4 62 4.5 SE 35 44 19 24 1020.7 1020.5 0.0
08/05:00pm 22.8 16.9 14.6 60 4.9 SSE 39 46 21 25 1020.8 1020.6 0.0
08/04:30pm 22.7 17.4 14.3 59 4.9 SSE 35 44 19 24 1021.0 1020.8 0.0
08/04:00pm 23.6 18.7 15.4 60 4.9 SSE 35 44 19 24 1021.5 1021.3 0.0
08/03:30pm 23.1 18.6 14.9 60 4.9 SE 32 41 17 22 1021.9 1021.7 0.0
08/03:00pm 22.6 18.2 14.2 59 4.9 SSE 30 43 16 23 1022.1 1021.9 0.0
08/02:30pm 23.4 19.3 14.9 59 5.1 SE 30 39 16 21 1022.4 1022.2 0.0
08/02:00pm 22.3 17.9 14.2 60 4.8 SSE 30 44 16 24 1022.6 1022.4 0.0
08/01:30pm 22.7 18.4 14.5 60 4.8 SE 30 39 16 21 1022.7 1022.5 0.0
08/01:00pm 22.6 18.1 13.9 58 5.1 SE 30 39 16 21 1023.2 1022.9 0.0
08/12:30pm 22.1 18.1 14.2 61 4.6 SE 28 37 15 20 1023.4 1023.1 0.0
08/12:00pm 21.9 18.0 14.5 63 4.3 SSE 28 39 15 21 1023.3 1023.0 0.0
08/11:30am 21.1 16.5 13.5 62 4.4 SSE 30 39 16 21 1023.3 1023.0 0.0
08/11:00am 20.8 16.2 13.5 63 4.2 SE 30 37 16 20 1023.5 1023.2 0.0
08/10:30am 20.7 17.2 14.4 67 3.7 SE 26 35 14 19 1023.5 1023.2 0.0
08/10:00am 19.5 14.7 12.8 65 3.8 SE 30 41 16 22 1023.6 1023.3 0.0
08/09:30am 19.6 15.8 13.5 68 3.5 SE 26 35 14 19 1023.5 1023.2 0.0
08/09:00am 18.8 14.9 13.2 70 3.2 SE 26 32 14 17 1023.4 1023.1 0.0
08/08:30am 18.5 14.9 13.1 71 3.0 SE 24 30 13 16 1023.3 1023.0 0.0
08/08:00am 17.8 14.7 13.5 76 2.4 SE 22 26 12 14 1022.9 1022.7 0.0
08/07:30am 17.5 15.3 13.4 77 2.3 SE 17 22 9 12 1022.7 1022.5 0.0
08/07:00am 17.5 14.4 13.4 77 2.3 SE 22 30 12 16 1022.5 1022.3 0.0
08/06:30am 17.3 14.1 13.2 77 2.3 SSE 22 30 12 16 1022.4 1022.2 0.0
08/06:00am 17.5 14.4 13.4 77 2.3 SE 22 30 12 16 1022.0 1021.8 0.0
08/05:30am 17.4 14.3 13.5 78 2.2 SE 22 30 12 16 1021.9 1021.7 0.0
08/05:00am 17.3 13.8 13.4 78 2.2 SE 24 33 13 18 1021.8 1021.6 0.0

Other Formats:

Comma delimited format used in spreadsheet applications
http://www.bom.gov.au/fwo/IDS60801/IDS60801.94651.axf

JavaScript Object Notation format (JSON) in row-major order
http://www.bom.gov.au/fwo/IDS60801/IDS60801.94651.json